Time;durP1;ratioP1;P1;durP2;ratioP2;P2;SDS_P1;SDS_P2;PMS_P1;PMS_P2;Temp;Humidity;BMP_temperature;BMP_pressure;BME280_temperature;BME280_humidity;BME280_pressure;Samples;Min_cycle;Max_cycle;Signal;HPM_P1;HPM_P2
2022/12/22 03:26:32;;;;;;;11.57;5.13;;;;;;;1.78;64.96;99391.25;6011912;23;20535;-89
2022/12/22 03:28:57;;;;;;;11.40;5.30;;;;;;;1.77;64.53;99396.47;6011566;23;20150;-89
2022/12/22 03:31:23;;;;;;;9.00;4.27;;;;;;;1.75;64.98;99393.91;6010946;23;20222;-88
2022/12/22 03:33:48;;;;;;;12.30;5.17;;;;;;;1.72;64.52;99393.94;6011270;23;20160;-88
2022/12/22 03:36:14;;;;;;;10.17;4.97;;;;;;;1.66;64.40;99394.03;6011206;23;20239;-88
2022/12/22 03:38:39;;;;;;;12.57;4.70;;;;;;;1.56;64.38;99396.75;6011460;23;20153;-89
2022/12/22 03:41:05;;;;;;;8.73;5.20;;;;;;;1.60;64.60;99404.41;6011188;23;20627;-88
2022/12/22 03:48:43;;;;;;;15.07;4.83;;;;;;;1.70;64.60;99392.25;6011472;23;20394;-88
2022/12/22 03:51:10;;;;;;;9.93;5.40;;;;;;;1.73;64.74;99393.06;5986473;23;20500;-89
2022/12/22 03:53:36;;;;;;;13.40;6.27;;;;;;;1.73;65.04;99390.47;5986550;23;20170;-88
2022/12/22 03:56:01;;;;;;;16.83;5.93;;;;;;;1.70;64.93;99394.84;6011109;23;20509;-89
2022/12/22 03:58:27;;;;;;;12.40;5.73;;;;;;;1.58;64.94;99393.25;6011415;23;20301;-89
2022/12/22 04:01:05;;;;;;;10.97;5.53;;;;;;;1.49;65.72;99389.94;5986849;23;20166;-88
2022/12/22 04:03:30;;;;;;;11.93;4.60;;;;;;;1.54;65.80;99388.16;6011076;23;20363;-89
2022/12/22 04:05:55;;;;;;;10.97;4.90;;;;;;;1.57;65.56;99382.97;6010902;23;20402;-89
2022/12/22 04:08:21;;;;;;;8.13;4.13;;;;;;;1.56;65.88;99382.09;6010918;23;20181;-88
2022/12/22 04:13:30;;;;;;;6.23;2.73;;;;;;;1.50;66.37;99382.16;6011660;23;20153;-88
2022/12/22 04:15:55;;;;;;;10.27;3.53;;;;;;;1.51;65.97;99380.44;6011343;23;20233;-88
2022/12/22 04:18:21;;;;;;;26.60;8.07;;;;;;;1.48;65.95;99376.16;5986298;23;20238;-88
2022/12/22 04:20:47;;;;;;;9.33;4.97;;;;;;;1.49;66.38;99379.63;6011260;23;20171;-88
2022/12/22 04:23:13;;;;;;;12.90;3.97;;;;;;;1.55;66.54;99370.03;5986441;23;20166;-88
2022/12/22 04:25:38;;;;;;;16.30;6.03;;;;;;;1.61;66.42;99375.13;6011177;23;20487;-88
2022/12/22 04:28:03;;;;;;;19.70;5.83;;;;;;;1.60;66.27;99381.16;5986817;23;20484;-89
2022/12/22 04:30:29;;;;;;;17.93;3.67;;;;;;;1.61;65.68;99371.69;6010355;23;20159;-88
2022/12/22 04:32:54;;;;;;;6.40;2.93;;;;;;;1.59;65.52;99376.03;6010826;23;20150;-88
2022/12/22 04:35:20;;;;;;;6.43;2.67;;;;;;;1.61;65.75;99380.31;6011117;23;20155;-88
2022/12/22 04:37:45;;;;;;;8.67;3.60;;;;;;;1.55;65.29;99375.22;6010815;23;20151;-88
2022/12/22 04:40:11;;;;;;;17.37;5.20;;;;;;;1.54;65.42;99385.56;6011175;23;20161;-88
2022/12/22 04:42:36;;;;;;;8.57;3.47;;;;;;;1.50;65.24;99383.88;6013426;23;20150;-89
2022/12/22 04:45:02;;;;;;;13.00;4.50;;;;;;;1.49;65.36;99377.03;6014196;23;20154;-88
2022/12/22 04:47:27;;;;;;;8.00;4.23;;;;;;;1.48;65.14;99373.59;6013879;23;20186;-88
2022/12/22 04:49:54;;;;;;;11.17;4.80;;;;;;;1.43;65.01;99370.22;6014574;23;20164;-88
2022/12/22 04:52:20;;;;;;;46.33;11.63;;;;;;;1.48;65.30;99367.56;6014464;23;20213;-88
2022/12/22 04:54:45;;;;;;;49.40;14.03;;;;;;;1.45;64.66;99363.28;6014197;23;20154;-88
2022/12/22 04:57:11;;;;;;;26.07;11.63;;;;;;;1.49;64.56;99359.81;6013827;23;20147;-88
2022/12/22 04:59:36;;;;;;;53.07;14.53;;;;;;;1.56;64.84;99360.56;6013923;23;20164;-88
2022/12/22 05:02:02;;;;;;;50.60;13.83;;;;;;;1.50;64.74;99364.09;6013824;23;20157;-88
2022/12/22 05:04:27;;;;;;;27.30;10.53;;;;;;;1.45;64.55;99365.88;6013646;23;20161;-88
2022/12/22 05:06:53;;;;;;;27.83;10.33;;;;;;;1.44;64.44;99358.16;6014151;23;20574;-88
2022/12/22 05:09:18;;;;;;;16.57;7.17;;;;;;;1.46;64.01;99357.25;6014164;23;20165;-88
2022/12/22 05:11:43;;;;;;;14.60;4.63;;;;;;;1.50;64.19;99356.34;6014140;23;20714;-88
2022/12/22 05:14:09;;;;;;;8.00;5.10;;;;;;;1.50;64.20;99350.31;6013765;23;20154;-88
2022/12/22 05:16:34;;;;;;;8.70;4.03;;;;;;;1.41;64.62;99358.19;5989330;23;20229;-88
2022/12/22 05:19:00;;;;;;;9.10;3.37;;;;;;;1.35;64.71;99358.25;6012566;23;20190;-89
2022/12/22 05:21:25;;;;;;;9.80;3.93;;;;;;;1.42;65.23;99368.50;5989208;23;20165;-89
2022/12/22 05:23:51;;;;;;;11.60;4.67;;;;;;;1.42;64.71;99372.78;6014067;23;20153;-88
2022/12/22 05:26:18;;;;;;;6.40;4.00;;;;;;;1.40;65.18;99364.22;6013744;23;20222;-88
2022/12/22 05:28:45;;;;;;;4.67;3.20;;;;;;;1.40;65.12;99375.41;6013768;23;20233;-88
2022/12/22 05:31:23;;;;;;;9.10;4.90;;;;;;;1.34;65.25;99378.06;6013987;23;20229;-88
2022/12/22 05:33:48;;;;;;;9.50;3.30;;;;;;;1.38;65.24;99384.03;6014046;23;20734;-89
2022/12/22 05:36:14;;;;;;;11.90;5.07;;;;;;;1.37;64.83;99385.78;5989055;23;20162;-88
2022/12/22 05:38:40;;;;;;;10.47;4.27;;;;;;;1.39;65.04;99389.19;6014041;23;20222;-88
2022/12/22 05:41:07;;;;;;;11.63;4.53;;;;;;;1.39;64.77;99384.00;5989467;23;20828;-88
2022/12/22 05:43:33;;;;;;;7.20;4.97;;;;;;;1.35;64.47;99384.94;6013694;23;20157;-88
2022/12/22 05:46:04;;;;;;;10.70;4.57;;;;;;;1.36;64.17;99394.41;5989500;23;20472;-88
2022/12/22 05:48:29;;;;;;;11.13;5.33;;;;;;;1.34;64.44;99390.13;6013890;23;20182;-88
2022/12/22 05:50:55;;;;;;;14.13;6.43;;;;;;;1.33;64.77;99397.03;5989016;23;20197;-88
2022/12/22 05:53:20;;;;;;;17.93;7.40;;;;;;;1.38;64.29;99384.91;5988434;23;20161;-88
2022/12/22 05:55:46;;;;;;;32.07;13.47;;;;;;;1.46;64.23;99395.16;5988600;23;20172;-88
2022/12/22 05:58:12;;;;;;;42.10;19.97;;;;;;;1.47;64.13;99389.94;6012498;23;20146;-88
2022/12/22 06:00:37;;;;;;;30.63;15.70;;;;;;;1.48;64.93;99399.41;5988556;23;20404;-88
2022/12/22 06:03:03;;;;;;;38.03;16.77;;;;;;;1.49;64.82;99397.69;5987858;23;20188;-88
2022/12/22 06:05:28;;;;;;;32.73;15.97;;;;;;;1.45;65.21;99393.41;5987835;23;20201;-88
2022/12/22 06:07:53;;;;;;;35.87;16.73;;;;;;;1.40;65.14;99395.22;5987825;23;20221;-88
2022/12/22 06:10:20;;;;;;;45.47;23.37;;;;;;;1.47;65.12;99391.69;6012375;23;20196;-88
2022/12/22 06:12:46;;;;;;;46.40;20.47;;;;;;;1.52;65.57;99401.06;6012018;23;20235;-88
2022/12/22 06:15:13;;;;;;;45.27;16.60;;;;;;;1.53;65.88;99405.38;6012051;23;20222;-88
2022/12/22 06:17:46;;;;;;;38.13;17.13;;;;;;;1.53;66.08;99401.94;6011977;23;20591;-88
2022/12/22 06:20:13;;;;;;;44.73;17.93;;;;;;;1.61;66.09;99405.28;6012027;23;20857;-88
2022/12/22 06:22:38;;;;;;;52.90;18.63;;;;;;;1.63;66.30;99409.56;6010778;23;20403;-88
2022/12/22 06:25:04;;;;;;;49.70;20.37;;;;;;;1.60;65.69;99406.19;6011965;23;20378;-88
2022/12/22 06:27:30;;;;;;;35.90;18.47;;;;;;;1.59;66.41;99404.44;6011768;23;20192;-88
2022/12/22 06:29:55;;;;;;;48.73;19.43;;;;;;;1.65;66.11;99402.63;6012539;23;20385;-88
2022/12/22 06:32:21;;;;;;;59.50;22.67;;;;;;;1.67;66.06;99408.66;6012195;23;20154;-88
2022/12/22 06:34:46;;;;;;;46.60;20.93;;;;;;;1.78;65.74;99409.34;6011863;23;20628;-88
2022/12/22 06:37:12;;;;;;;45.63;22.17;;;;;;;2.14;66.42;99409.72;5987211;23;20161;-88
2022/12/22 06:39:37;;;;;;;45.97;22.07;;;;;;;2.80;66.43;99410.41;6012120;23;20153;-88
2022/12/22 06:44:49;;;;;;;48.43;19.00;;;;;;;4.43;61.29;99401.00;6011833;23;20217;-89
2022/12/22 06:47:15;;;;;;;38.67;16.43;;;;;;;5.06;57.92;99401.97;5987402;23;20430;-88
2022/12/22 06:49:41;;;;;;;51.07;18.87;;;;;;;5.27;55.76;99395.34;5987745;23;20154;-89
2022/12/22 06:52:07;;;;;;;35.63;18.03;;;;;;;5.13;55.57;99408.75;6011701;23;20264;-88
2022/12/22 06:54:33;;;;;;;35.80;16.83;;;;;;;4.98;55.55;99404.78;6011638;23;20324;-89
2022/12/22 06:56:59;;;;;;;45.07;17.70;;;;;;;4.89;56.00;99401.56;6012229;23;20179;-88
2022/12/22 06:59:24;;;;;;;26.20;15.13;;;;;;;4.94;56.75;99410.09;6011620;23;20154;-89
2022/12/22 07:01:49;;;;;;;28.50;14.23;;;;;;;5.02;56.66;99402.97;6011591;23;20246;-89
2022/12/22 07:04:19;;;;;;;25.17;12.47;;;;;;;5.10;56.33;99413.16;6011678;23;20242;-89
2022/12/22 07:06:46;;;;;;;19.20;10.80;;;;;;;5.08;56.08;99412.34;6012518;23;20175;-89
2022/12/22 07:09:11;;;;;;;21.77;11.07;;;;;;;5.11;56.99;99414.88;6011530;23;20155;-89
2022/12/22 07:11:36;;;;;;;23.77;9.60;;;;;;;5.15;57.11;99419.94;6010334;23;20170;-89
2022/12/22 07:14:02;;;;;;;23.77;10.73;;;;;;;5.16;56.83;99423.41;5987515;23;20158;-89
2022/12/22 07:16:27;;;;;;;23.37;11.93;;;;;;;5.12;57.25;99420.00;6011755;23;20182;-89
2022/12/22 07:18:53;;;;;;;30.97;13.07;;;;;;;5.09;57.30;99414.91;6011379;23;20214;-88
2022/12/22 07:21:18;;;;;;;31.20;12.37;;;;;;;5.04;57.57;99427.16;6011291;23;20264;-88
2022/12/22 07:23:44;;;;;;;29.90;11.90;;;;;;;4.97;58.16;99421.28;6011380;23;20178;-89
2022/12/22 07:26:11;;;;;;;26.70;12.37;;;;;;;4.92;58.57;99419.69;6011312;23;20281;-90
2022/12/22 07:28:39;;;;;;;21.90;11.13;;;;;;;4.86;59.58;99420.69;6011356;23;20182;-90
2022/12/22 07:31:05;;;;;;;28.07;13.13;;;;;;;4.81;59.79;99419.09;5986779;23;20170;-90
2022/12/22 07:33:31;;;;;;;35.13;13.80;;;;;;;4.76;60.46;99419.22;6011274;23;20637;-90
2022/12/22 07:36:14;;;;;;;32.73;11.67;;;;;;;4.68;61.81;99422.88;6011316;23;20181;-90
2022/12/22 07:38:41;;;;;;;26.70;13.13;;;;;;;4.71;62.24;99417.63;6011448;23;20161;-89
2022/12/22 07:43:55;;;;;;;31.03;14.83;;;;;;;4.68;62.59;99413.34;6011464;23;20155;-90
2022/12/22 07:46:21;;;;;;;30.97;14.37;;;;;;;4.72;63.02;99412.38;6011230;23;20154;-90
2022/12/22 07:51:33;;;;;;;19.93;10.17;;;;;;;4.85;63.12;99405.13;6012040;23;20623;-90
2022/12/22 07:53:58;;;;;;;30.00;11.03;;;;;;;4.97;63.19;99410.88;6011678;23;20154;-91
2022/12/22 07:56:23;;;;;;;32.43;14.50;;;;;;;5.04;63.39;99410.72;6011571;23;20167;-90
2022/12/22 07:58:49;;;;;;;36.83;17.10;;;;;;;5.14;63.32;99407.84;6010835;23;20238;-91
2022/12/22 08:01:14;;;;;;;37.63;17.20;;;;;;;5.18;63.92;99406.00;6010140;23;20244;-91
2022/12/22 08:03:40;;;;;;;39.97;15.90;;;;;;;5.20;63.50;99407.69;5986736;23;20172;-91
2022/12/22 08:06:06;;;;;;;23.83;12.00;;;;;;;5.29;63.50;99402.22;5986641;23;20659;-91
2022/12/22 08:08:32;;;;;;;20.70;9.87;;;;;;;5.39;62.90;99398.50;5986566;23;20622;-91
2022/12/22 08:11:01;;;;;;;22.33;9.67;;;;;;;5.43;63.06;99397.50;6011299;23;20155;-91
2022/12/22 08:13:27;;;;;;;14.93;8.10;;;;;;;5.55;63.18;99397.16;5986650;23;20159;-91
2022/12/22 08:15:52;;;;;;;19.07;9.63;;;;;;;5.65;63.51;99399.50;6010777;23;20597;-90
2022/12/22 08:18:18;;;;;;;25.23;11.03;;;;;;;5.79;62.93;99397.38;5986448;23;20568;-90
2022/12/22 08:20:50;;;;;;;17.53;9.23;;;;;;;5.88;63.20;99394.50;6011016;23;20567;-90
2022/12/22 08:23:16;;;;;;;17.87;9.00;;;;;;;6.14;63.03;99389.38;5986597;23;20209;-91
2022/12/22 08:25:43;;;;;;;20.70;8.60;;;;;;;6.24;61.92;99392.56;5986468;23;20163;-91
2022/12/22 08:28:08;;;;;;;23.93;10.80;;;;;;;6.29;61.01;99382.88;6010973;23;20182;-91
2022/12/22 08:30:34;;;;;;;18.73;10.10;;;;;;;6.33;60.85;99384.47;6011082;23;20151;-91
2022/12/22 08:33:00;;;;;;;18.67;8.60;;;;;;;6.48;61.20;99383.97;6011057;23;20181;-91
2022/12/22 08:35:26;;;;;;;18.73;9.77;;;;;;;6.68;61.24;99377.19;6011018;23;20154;-92
2022/12/22 08:37:52;;;;;;;27.63;8.70;;;;;;;6.84;60.92;99376.72;6009961;23;20155;-91
2022/12/22 08:40:24;;;;;;;19.37;10.30;;;;;;;6.89;60.50;99369.59;6011715;23;20154;-91
2022/12/22 08:42:54;;;;;;;25.10;10.43;;;;;;;6.98;59.84;99358.84;5986583;23;20475;-91
2022/12/22 08:45:19;;;;;;;24.60;9.93;;;;;;;7.01;60.36;99364.81;6011360;23;20146;-92
2022/12/22 08:47:45;;;;;;;22.03;10.40;;;;;;;7.16;59.66;99355.59;6011690;23;20250;-91
2022/12/22 08:50:10;;;;;;;24.80;11.03;;;;;;;7.30;59.15;99350.75;6011043;23;20237;-91
2022/12/22 08:52:36;;;;;;;28.83;10.53;;;;;;;7.47;59.41;99348.38;6011537;23;20150;-91
2022/12/22 08:55:02;;;;;;;23.90;10.27;;;;;;;7.48;58.68;99344.88;6010182;23;20166;-91
2022/12/22 08:57:27;;;;;;;22.13;10.03;;;;;;;7.59;57.80;99337.50;5986545;23;20536;-90
2022/12/22 08:59:52;;;;;;;24.83;10.83;;;;;;;7.76;58.05;99335.09;5986611;23;20163;-91
2022/12/22 09:02:18;;;;;;;32.13;11.93;;;;;;;7.81;56.85;99332.28;6011052;23;20154;-91
2022/12/22 09:04:43;;;;;;;19.83;10.13;;;;;;;7.88;56.36;99328.56;5987337;23;20181;-91
2022/12/22 09:07:10;;;;;;;24.73;11.87;;;;;;;8.00;56.24;99315.88;5986438;23;20194;-91
2022/12/22 09:09:35;;;;;;;21.07;11.00;;;;;;;8.30;55.09;99313.00;6011097;23;20584;-91
2022/12/22 09:12:02;;;;;;;25.50;11.27;;;;;;;8.45;55.72;99309.75;6011336;23;20161;-91
2022/12/22 09:14:29;;;;;;;26.90;11.67;;;;;;;8.62;54.53;99309.91;5986421;23;20169;-91
2022/12/22 09:16:54;;;;;;;19.00;9.20;;;;;;;8.52;53.81;99296.38;6011047;23;20148;-92
2022/12/22 09:19:20;;;;;;;22.97;10.17;;;;;;;8.57;52.20;99297.03;5986432;23;20167;-91
2022/12/22 09:21:45;;;;;;;25.50;9.93;;;;;;;8.70;51.76;99294.75;6010998;23;20158;-91
2022/12/22 09:24:11;;;;;;;21.70;8.77;;;;;;;8.59;50.07;99296.97;5986463;23;20167;-92
2022/12/22 09:26:37;;;;;;;22.23;9.30;;;;;;;8.81;50.92;99292.53;5986289;23;20575;-92
2022/12/22 09:29:03;;;;;;;23.33;9.90;;;;;;;9.10;51.30;99289.50;5987282;23;20172;-92
2022/12/22 09:31:29;;;;;;;30.57;9.70;;;;;;;9.32;51.50;99289.41;5988192;23;20202;-91
2022/12/22 09:33:54;;;;;;;22.00;10.10;;;;;;;9.51;51.10;99271.94;5988686;23;20157;-92
2022/12/22 09:36:25;;;;;;;24.40;11.00;;;;;;;9.68;50.44;99264.16;5988100;23;20170;-91
2022/12/22 09:38:51;;;;;;;22.57;11.07;;;;;;;9.69;49.65;99270.25;5987954;23;20157;-91
2022/12/22 09:41:36;;;;;;;30.97;10.83;;;;;;;9.69;48.44;99263.25;6012624;23;20150;-91
2022/12/22 09:44:31;;;;;;;28.60;10.77;;;;;;;9.58;49.19;99256.81;5988297;23;20168;-90
2022/12/22 09:46:59;;;;;;;34.30;10.83;;;;;;;9.72;49.18;99257.03;6011953;23;20193;-91
2022/12/22 09:49:26;;;;;;;29.33;10.80;;;;;;;9.94;49.56;99246.34;5988391;23;20162;-91
2022/12/22 09:51:56;;;;;;;27.17;12.17;;;;;;;10.10;49.03;99242.06;6012553;23;20230;-90
2022/12/22 09:54:22;;;;;;;30.80;12.83;;;;;;;10.14;48.15;99244.50;6011962;23;20637;-90
2022/12/22 09:56:48;;;;;;;29.37;11.80;;;;;;;10.30;47.96;99245.44;6012390;23;20163;-91
2022/12/22 09:59:15;;;;;;;24.43;12.97;;;;;;;10.51;47.10;99238.28;5987891;23;20539;-90
2022/12/22 10:01:51;;;;;;;21.90;11.17;;;;;;;10.66;46.24;99239.28;5987754;23;20185;-90
2022/12/22 10:04:28;;;;;;;23.47;10.00;;;;;;;10.84;45.03;99238.31;6012521;23;20149;-91
2022/12/22 10:07:19;;;;;;;22.83;11.63;;;;;;;10.67;44.61;99228.69;6012516;23;20170;-90
2022/12/22 10:09:45;;;;;;;21.43;10.03;;;;;;;10.46;45.25;99230.66;6000953;23;20615;-91
2022/12/22 10:12:15;;;;;;;27.87;11.97;;;;;;;10.75;46.06;99223.06;6012492;23;20186;-91
2022/12/22 10:14:43;;;;;;;28.67;12.87;;;;;;;10.91;45.85;99226.59;6012680;23;20159;-91
2022/12/22 10:17:30;;;;;;;25.23;12.27;;;;;;;11.08;46.11;99221.31;6012268;23;20165;-91
2022/12/22 10:20:20;;;;;;;30.97;12.83;;;;;;;11.13;45.23;99214.03;6012565;23;20138;-90
2022/12/22 10:23:01;;;;;;;30.87;13.10;;;;;;;11.27;45.46;99214.13;6012020;23;20147;-90
2022/12/22 10:25:40;;;;;;;28.10;13.80;;;;;;;11.42;45.40;99213.31;5987506;23;20159;-90
2022/12/22 10:28:16;;;;;;;36.07;14.77;;;;;;;11.52;45.46;99203.16;6012175;23;20181;-89
2022/12/22 10:30:42;;;;;;;34.20;16.23;;;;;;;11.69;44.28;99200.44;6012308;23;20143;-90
2022/12/22 10:33:15;;;;;;;27.90;14.10;;;;;;;11.74;44.22;99195.78;6010838;23;20190;-90
2022/12/22 10:35:50;;;;;;;45.50;16.77;;;;;;;11.71;45.35;99188.09;5987391;23;20151;-90
2022/12/22 10:38:34;;;;;;;30.20;13.57;;;;;;;11.77;45.11;99184.25;6012287;23;20154;-90
2022/12/22 10:41:17;;;;;;;22.43;11.20;;;;;;;11.88;45.09;99179.25;5987141;23;20498;-90
2022/12/22 10:43:52;;;;;;;21.00;10.77;;;;;;;11.93;45.36;99171.94;6011110;23;20577;-90
2022/12/22 10:46:27;;;;;;;21.53;10.23;;;;;;;12.09;46.18;99170.13;6012225;23;20154;-90
2022/12/22 10:49:14;;;;;;;25.33;10.47;;;;;;;12.26;45.27;99165.59;6012456;23;20177;-89
2022/12/22 10:51:43;;;;;;;18.77;8.70;;;;;;;12.36;45.13;99165.91;6011838;23;20144;-90
2022/12/22 10:54:08;;;;;;;19.40;9.03;;;;;;;12.62;44.94;99159.09;5987268;23;20235;-90
2022/12/22 10:56:34;;;;;;;19.07;8.73;;;;;;;12.45;44.66;99159.25;6012100;23;20162;-90
2022/12/22 10:59:02;;;;;;;20.37;8.60;;;;;;;12.65;45.10;99151.88;6012066;23;20156;-89
2022/12/22 11:01:34;;;;;;;15.07;7.30;;;;;;;12.55;45.11;99153.34;6011979;23;20153;-89
2022/12/22 11:04:21;;;;;;;14.93;6.93;;;;;;;12.57;45.20;99148.84;6012011;23;20154;-89
2022/12/22 11:06:47;;;;;;;19.27;7.73;;;;;;;12.71;44.39;99151.47;5987092;23;20178;-89
2022/12/22 11:09:14;;;;;;;11.60;6.83;;;;;;;12.68;44.53;99151.66;6010430;23;20168;-89
2022/12/22 11:11:58;;;;;;;15.07;8.27;;;;;;;12.54;45.18;99148.19;5987019;23;20207;-89
2022/12/22 11:14:43;;;;;;;20.40;10.00;;;;;;;12.26;45.61;99141.94;6011958;23;20145;-88
2022/12/22 11:17:21;;;;;;;19.83;8.07;;;;;;;12.10;47.46;99137.69;6011685;23;20175;-89
2022/12/22 11:20:17;;;;;;;20.53;8.77;;;;;;;12.05;47.12;99134.50;5987112;23;20208;-89
2022/12/22 11:22:54;;;;;;;22.20;9.00;;;;;;;12.36;46.64;99131.72;5987047;23;20158;-89
2022/12/22 11:25:25;;;;;;;16.67;7.80;;;;;;;12.29;46.77;99127.75;6011922;23;20205;-89
2022/12/22 11:28:08;;;;;;;19.40;9.17;;;;;;;11.89;47.52;99126.66;6011691;23;20195;-89
2022/12/22 11:30:54;;;;;;;21.13;8.17;;;;;;;12.10;47.36;99128.03;6012152;23;20139;-89
2022/12/22 11:33:41;;;;;;;19.13;8.40;;;;;;;12.03;47.73;99126.69;6011789;23;20217;-89
2022/12/22 11:36:20;;;;;;;19.73;8.20;;;;;;;12.14;47.07;99132.16;6011752;23;20136;-89
2022/12/22 11:39:04;;;;;;;27.93;8.20;;;;;;;12.22;47.64;99115.94;6011434;23;20143;-89
2022/12/22 11:41:56;;;;;;;15.70;7.47;;;;;;;11.99;47.41;99125.19;6011486;23;20143;-90
2022/12/22 11:44:44;;;;;;;15.40;7.40;;;;;;;12.03;48.42;99123.19;5987264;23;20534;-89
2022/12/22 11:47:57;;;;;;;19.87;7.97;;;;;;;12.28;47.00;99119.06;6011580;23;20234;-89
2022/12/22 11:50:56;;;;;;;15.43;7.00;;;;;;;12.18;47.33;99115.28;6011552;23;20221;-89
2022/12/22 11:53:40;;;;;;;15.97;7.57;;;;;;;12.41;46.66;99111.28;5980306;23;20162;-89
2022/12/22 11:56:20;;;;;;;18.17;8.20;;;;;;;12.59;46.32;99104.91;5986627;23;20183;-90
2022/12/22 11:59:02;;;;;;;16.30;7.83;;;;;;;12.79;45.58;99112.41;6011713;23;20206;-89
2022/12/22 12:02:04;;;;;;;19.23;8.60;;;;;;;12.53;45.61;99105.25;6011598;23;20541;-89
2022/12/22 12:04:41;;;;;;;16.90;7.87;;;;;;;12.77;44.70;99103.75;6011280;23;20193;-89
2022/12/22 12:07:25;;;;;;;16.60;6.73;;;;;;;12.81;46.03;99105.25;6011502;23;20265;-90
2022/12/22 12:10:21;;;;;;;17.00;6.90;;;;;;;12.83;45.26;99107.81;5987210;23;20243;-90
2022/12/22 12:13:13;;;;;;;17.73;7.83;;;;;;;12.97;45.10;99104.31;6011770;23;20175;-89
2022/12/22 12:15:46;;;;;;;17.03;7.63;;;;;;;12.94;45.50;99106.16;6010157;23;20188;-89
2022/12/22 12:18:18;;;;;;;21.37;7.87;;;;;;;12.60;45.28;99097.84;6011205;23;20170;-89
2022/12/22 12:21:02;;;;;;;16.43;7.20;;;;;;;12.93;45.36;99093.97;6011732;23;20168;-90
2022/12/22 12:23:46;;;;;;;20.43;7.50;;;;;;;12.95;44.63;99093.88;6011098;23;20153;-89
2022/12/22 12:26:20;;;;;;;15.47;7.50;;;;;;;13.10;45.08;99092.09;6011056;23;20216;-90
2022/12/22 12:29:01;;;;;;;15.43;6.63;;;;;;;13.34;44.32;99093.16;5986451;23;20618;-89
2022/12/22 12:31:42;;;;;;;15.27;7.40;;;;;;;13.43;44.54;99090.78;6011734;23;20152;-89
2022/12/22 12:34:15;;;;;;;15.03;7.33;;;;;;;13.51;44.12;99090.28;6009818;23;20217;-89
2022/12/22 12:36:56;;;;;;;14.80;7.53;;;;;;;13.46;43.62;99100.28;5987479;23;20165;-90
2022/12/22 12:39:48;;;;;;;15.17;8.17;;;;;;;13.40;44.09;99095.41;6011612;23;20142;-89
2022/12/22 12:42:31;;;;;;;15.73;7.43;;;;;;;13.66;44.19;99094.53;6011311;23;20138;-89
2022/12/22 12:45:01;;;;;;;13.40;7.10;;;;;;;13.88;43.63;99091.34;6011645;23;20178;-89
2022/12/22 12:47:41;;;;;;;17.17;7.67;;;;;;;14.00;43.38;99095.78;6010950;23;20182;-90
2022/12/22 12:50:32;;;;;;;14.23;7.63;;;;;;;13.79;43.34;99092.78;6011262;23;20138;-89
2022/12/22 12:52:57;;;;;;;17.47;6.77;;;;;;;13.90;42.95;99085.03;6011263;23;20162;-89
2022/12/22 12:55:29;;;;;;;17.07;7.30;;;;;;;13.97;42.11;99088.94;6010879;23;20575;-89
2022/12/22 12:57:56;;;;;;;15.37;7.70;;;;;;;14.00;42.97;99088.72;6010911;23;20587;-89
2022/12/22 13:00:33;;;;;;;16.67;7.50;;;;;;;13.98;42.73;99085.34;6010893;23;20165;-89
2022/12/22 13:03:03;;;;;;;18.47;8.37;;;;;;;14.00;42.96;99082.59;6012714;23;20158;-90
2022/12/22 13:05:35;;;;;;;21.13;8.20;;;;;;;13.70;43.13;99096.06;6013006;23;20181;-89
2022/12/22 13:08:09;;;;;;;19.00;8.67;;;;;;;13.70;43.58;99079.41;6012799;23;20265;-90
2022/12/22 13:11:08;;;;;;;16.23;7.83;;;;;;;13.72;43.91;99088.88;6013097;23;20150;-89
2022/12/22 13:13:34;;;;;;;15.57;7.47;;;;;;;13.89;43.21;99082.47;6011406;23;20238;-90
2022/12/22 13:15:59;;;;;;;16.00;8.17;;;;;;;13.88;42.94;99083.44;6013072;23;20229;-89
2022/12/22 13:18:25;;;;;;;16.37;8.33;;;;;;;13.90;42.81;99086.81;6013087;23;20229;-90
2022/12/22 13:21:01;;;;;;;18.43;8.73;;;;;;;13.87;43.44;99079.94;6013618;23;20184;-90
2022/12/22 13:23:29;;;;;;;21.87;8.80;;;;;;;13.92;43.05;99082.28;6012573;23;20157;-90
2022/12/22 13:25:58;;;;;;;20.50;9.00;;;;;;;14.04;42.85;99084.94;6013233;23;20228;-90
2022/12/22 13:28:26;;;;;;;21.13;8.70;;;;;;;14.07;43.15;99092.63;6012497;23;20215;-89
2022/12/22 13:31:15;;;;;;;16.70;9.17;;;;;;;14.09;43.08;99087.28;6012909;23;20158;-89
2022/12/22 13:33:41;;;;;;;15.53;7.70;;;;;;;14.09;42.64;99077.56;6013329;23;20150;-90
2022/12/22 13:36:17;;;;;;;19.07;9.43;;;;;;;14.16;42.92;99078.00;6011369;23;20233;-90
2022/12/22 13:38:42;;;;;;;17.30;8.33;;;;;;;14.15;42.43;99077.13;6012573;23;20148;-90
2022/12/22 13:41:21;;;;;;;21.63;8.70;;;;;;;13.98;42.78;99077.44;5987954;23;20166;-89
2022/12/22 13:43:53;;;;;;;17.53;8.57;;;;;;;13.84;43.02;99074.03;6011338;23;20502;-90
2022/12/22 13:46:19;;;;;;;24.97;7.80;;;;;;;13.69;43.22;99068.00;5987971;23;20620;-89
2022/12/22 13:48:48;;;;;;;27.70;11.60;;;;;;;13.65;43.63;99071.81;5987811;23;20188;-90
2022/12/22 13:51:31;;;;;;;20.00;9.70;;;;;;;13.53;43.62;99067.31;6012271;23;20157;-89
2022/12/22 13:54:12;;;;;;;17.53;9.00;;;;;;;13.28;44.18;99072.50;6013400;23;20137;-90
2022/12/22 13:56:49;;;;;;;21.70;9.77;;;;;;;13.24;44.78;99071.00;6012717;23;20145;-89
2022/12/22 13:59:30;;;;;;;23.20;9.10;;;;;;;13.31;44.25;99057.34;6013023;23;20139;-89
2022/12/22 14:02:09;;;;;;;14.03;8.20;;;;;;;13.41;44.39;99078.66;6012674;23;20145;-90
2022/12/22 14:04:37;;;;;;;17.97;8.70;;;;;;;13.33;44.09;99065.16;6013051;23;20627;-89
2022/12/22 14:07:17;;;;;;;16.13;7.90;;;;;;;13.28;44.86;99068.09;6012208;23;20236;-90
2022/12/22 14:09:53;;;;;;;15.33;7.60;;;;;;;13.23;44.92;99064.06;6011117;23;20151;-89
2022/12/22 14:12:29;;;;;;;18.70;7.47;;;;;;;13.23;44.90;99064.06;6012083;23;20159;-89
2022/12/22 14:14:57;;;;;;;18.50;8.50;;;;;;;13.26;45.40;99066.50;6010565;23;20156;-90
2022/12/22 14:17:30;;;;;;;25.00;9.17;;;;;;;13.30;45.08;99065.34;5987618;23;20153;-90
2022/12/22 14:19:58;;;;;;;18.97;7.53;;;;;;;13.29;44.76;99066.28;5987576;23;20498;-90
2022/12/22 14:22:33;;;;;;;16.93;7.67;;;;;;;13.33;44.83;99066.00;5987543;23;20167;-90
2022/12/22 14:25:08;;;;;;;19.00;7.67;;;;;;;13.35;44.76;99065.91;6012443;23;20203;-89
2022/12/22 14:27:33;;;;;;;18.17;7.53;;;;;;;13.27;44.80;99061.13;5987397;23;20203;-89
2022/12/22 14:30:02;;;;;;;14.53;7.77;;;;;;;13.24;44.61;99065.72;5987542;23;20234;-90
2022/12/22 14:32:38;;;;;;;15.40;8.10;;;;;;;13.13;44.38;99068.25;6012048;23;20195;-89
2022/12/22 14:35:15;;;;;;;19.03;9.20;;;;;;;13.13;44.71;99073.50;6011939;23;20602;-90
2022/12/22 14:37:41;;;;;;;19.30;9.00;;;;;;;13.07;44.33;99071.25;6012368;23;20144;-89
2022/12/22 14:40:32;;;;;;;19.47;9.70;;;;;;;13.04;44.35;99072.25;6010890;23;20161;-90
2022/12/22 14:43:00;;;;;;;20.77;9.00;;;;;;;12.88;44.66;99071.53;6012671;23;20144;-90
2022/12/22 14:45:26;;;;;;;20.73;9.67;;;;;;;12.78;44.66;99079.16;6012196;23;20162;-90
2022/12/22 14:47:55;;;;;;;19.90;10.53;;;;;;;12.68;44.94;99071.94;6012085;23;20495;-89
2022/12/22 14:50:26;;;;;;;18.80;9.70;;;;;;;12.55;44.62;99084.97;6012279;23;20155;-89
2022/12/22 14:52:58;;;;;;;23.73;9.77;;;;;;;12.44;44.99;99084.81;6011891;23;20162;-90
2022/12/22 14:55:33;;;;;;;22.97;10.13;;;;;;;12.30;45.10;99079.53;6012470;23;20163;-90
2022/12/22 14:58:04;;;;;;;21.60;10.37;;;;;;;12.17;45.47;99078.56;6012693;23;20150;-90
2022/12/22 15:00:33;;;;;;;21.50;10.47;;;;;;;12.02;45.75;99071.63;5987142;23;20511;-90
2022/12/22 15:03:03;;;;;;;24.10;10.73;;;;;;;11.91;45.93;99074.03;6011753;23;20179;-90
2022/12/22 15:05:36;;;;;;;21.70;10.57;;;;;;;11.80;45.94;99079.91;6011636;23;20172;-89
2022/12/22 15:08:06;;;;;;;20.50;10.87;;;;;;;11.68;46.19;99073.59;5987530;23;20194;-90
2022/12/22 15:10:39;;;;;;;21.57;11.53;;;;;;;11.58;46.40;99069.75;6010620;23;20493;-89
2022/12/22 15:13:10;;;;;;;20.97;10.47;;;;;;;11.51;46.89;99076.31;6010560;23;20227;-90
2022/12/22 15:15:36;;;;;;;18.83;10.60;;;;;;;11.41;46.84;99076.91;6012329;23;20210;-90
2022/12/22 15:18:02;;;;;;;26.50;11.57;;;;;;;11.24;47.21;99075.22;5987097;23;20189;-89
2022/12/22 15:20:28;;;;;;;23.67;11.57;;;;;;;11.09;47.60;99076.09;5987066;23;20155;-90
2022/12/22 15:22:54;;;;;;;21.90;11.83;;;;;;;10.96;48.04;99075.09;6010402;23;20155;-89
2022/12/22 15:25:23;;;;;;;21.60;10.97;;;;;;;10.92;48.28;99070.94;5987025;23;20270;-89